Time;durP1;ratioP1;P1;durP2;ratioP2;P2;SDS_P1;SDS_P2;PMS_P1;PMS_P2;Temp;Humidity;BMP_temperature;BMP_pressure;BME280_temperature;BME280_humidity;BME280_pressure;Samples;Min_cycle;Max_cycle;Signal;HPM_P1;HPM_P2
2022/04/17 00:00:00;;;;;;;4.63;4.17;;;;;;;18.60;44.00;99113.41;5112026;28;20197;-61
2022/04/17 00:02:27;;;;;;;8.20;5.30;;;;;;;18.57;44.12;99111.72;5110744;28;20193;-61
2022/04/17 00:04:54;;;;;;;5.80;5.17;;;;;;;18.53;44.16;99106.63;5092851;28;20198;-61
2022/04/17 00:07:21;;;;;;;6.00;4.90;;;;;;;18.53;44.40;99110.09;5109040;28;20205;-61
2022/04/17 00:09:48;;;;;;;12.87;5.53;;;;;;;18.45;44.93;99100.72;5094612;28;20205;-61
2022/04/17 00:12:15;;;;;;;6.13;5.60;;;;;;;18.35;45.20;99104.41;5090436;28;20226;-60
2022/04/17 00:14:43;;;;;;;6.60;6.00;;;;;;;18.29;45.60;99113.19;5090377;28;20266;-61
2022/04/17 00:17:13;;;;;;;6.90;6.27;;;;;;;18.14;46.42;99101.34;5090568;28;20595;-61
2022/04/17 00:19:39;;;;;;;12.43;7.57;;;;;;;18.00;47.36;99105.13;5090745;28;20633;-61
2022/04/17 00:22:07;;;;;;;11.32;7.95;;;;;;;17.99;47.21;99106.84;5087221;28;20446;-61
2022/04/17 00:24:34;;;;;;;9.47;7.87;;;;;;;17.97;47.49;99108.63;5090577;28;20190;-61
2022/04/17 00:27:01;;;;;;;8.90;6.93;;;;;;;17.94;47.61;99102.63;5090493;28;20626;-61
2022/04/17 00:29:28;;;;;;;12.60;8.30;;;;;;;17.86;48.27;99101.91;5090584;28;20175;-62
2022/04/17 00:31:56;;;;;;;13.73;7.83;;;;;;;17.88;48.35;99100.16;5090600;28;20174;-61
2022/04/17 00:34:25;;;;;;;13.90;8.23;;;;;;;17.71;48.10;99071.03;5089934;28;20651;-61
2022/04/17 00:36:52;;;;;;;12.20;8.80;;;;;;;17.81;48.24;99101.16;5090308;28;20753;-61
2022/04/17 00:39:19;;;;;;;13.73;9.47;;;;;;;17.78;48.46;99107.28;5090318;28;20278;-61
2022/04/17 00:41:46;;;;;;;11.40;8.97;;;;;;;17.39;48.60;99046.47;5090629;28;20195;-60
2022/04/17 00:44:15;;;;;;;11.93;8.73;;;;;;;17.78;48.52;99106.41;5090267;28;20668;-60
2022/04/17 00:46:42;;;;;;;12.07;8.83;;;;;;;17.73;49.10;99103.91;5090242;28;20252;-60
2022/04/17 00:49:10;;;;;;;11.90;9.30;;;;;;;17.73;48.90;99111.69;5090641;28;20195;-61
2022/04/17 00:51:38;;;;;;;12.73;8.67;;;;;;;17.69;49.20;99104.84;5090085;28;20280;-61
2022/04/17 00:54:07;;;;;;;12.73;8.57;;;;;;;17.74;49.09;99108.22;5089853;28;20215;-62
2022/04/17 00:56:35;;;;;;;11.40;7.73;;;;;;;17.80;48.82;99105.50;5086587;28;20744;-61
2022/04/17 00:59:04;;;;;;;11.47;7.67;;;;;;;17.81;48.81;99103.75;5092294;28;20281;-61
2022/04/17 01:01:33;;;;;;;11.63;8.03;;;;;;;17.80;48.88;99094.28;5104173;28;20669;-61
2022/04/17 01:04:00;;;;;;;12.90;7.73;;;;;;;17.77;48.85;99089.13;5100962;28;20197;-61
2022/04/17 01:06:27;;;;;;;11.07;7.22;;;;;;;17.92;48.35;99110.47;5109278;28;20818;-61
2022/04/17 01:08:56;;;;;;;6.70;6.10;;;;;;;18.03;48.24;99103.31;5110733;28;20204;-61
2022/04/17 01:11:23;;;;;;;8.23;6.80;;;;;;;18.07;47.88;99106.72;5110572;28;20190;-61
2022/04/17 01:13:50;;;;;;;7.30;6.57;;;;;;;18.05;48.09;99106.72;5110322;28;20229;-61
2022/04/17 01:16:17;;;;;;;9.97;7.07;;;;;;;18.00;48.77;99103.38;5110739;28;20247;-61
2022/04/17 01:18:54;;;;;;;12.90;7.47;;;;;;;17.89;49.79;99107.94;5109878;28;20198;-61
2022/04/17 01:21:23;;;;;;;11.05;8.15;;;;;;;17.73;50.46;99098.72;5090362;28;20427;-61
2022/04/17 01:29:19;;;;;;;9.93;8.97;;;;;;;17.69;51.16;99092.72;5110504;28;20201;-61
2022/04/17 01:31:46;;;;;;;10.60;8.93;;;;;;;17.43;51.43;99053.34;5092918;28;20675;-62
2022/04/17 01:34:15;;;;;;;14.33;9.63;;;;;;;17.47;51.84;99087.94;5090281;28;20312;-61
2022/04/17 01:36:43;;;;;;;10.60;8.87;;;;;;;17.41;52.29;99095.81;5090020;28;20256;-61
2022/04/17 01:39:10;;;;;;;12.00;9.07;;;;;;;17.48;52.05;99110.41;5090195;28;20657;-61
2022/04/17 01:41:38;;;;;;;13.50;9.37;;;;;;;17.47;52.17;99100.91;5090210;28;20285;-62
2022/04/17 01:44:06;;;;;;;11.67;9.90;;;;;;;17.35;52.15;99076.00;5090473;28;20195;-61
2022/04/17 01:46:33;;;;;;;12.23;10.20;;;;;;;17.44;52.28;99109.59;5090244;28;20286;-61
2022/04/17 01:49:01;;;;;;;11.17;9.73;;;;;;;17.46;51.97;99099.19;5089982;28;20286;-61
2022/04/17 01:51:28;;;;;;;10.73;9.33;;;;;;;17.43;51.60;99086.25;5089930;28;20283;-61
2022/04/17 01:53:56;;;;;;;12.27;8.70;;;;;;;17.51;51.54;99097.34;5110384;28;20694;-61
2022/04/17 01:56:23;;;;;;;10.87;8.97;;;;;;;17.47;51.97;99093.13;5110149;28;20279;-61
2022/04/17 01:58:50;;;;;;;11.37;9.57;;;;;;;17.52;52.11;99088.69;5110041;28;20206;-61
2022/04/17 02:01:17;;;;;;;12.13;9.27;;;;;;;17.47;51.90;99086.16;5110204;28;20204;-61
2022/04/17 02:03:44;;;;;;;11.93;9.47;;;;;;;17.47;51.88;99078.38;5110039;28;20185;-62
2022/04/17 02:06:10;;;;;;;10.80;8.70;;;;;;;17.47;52.37;99075.75;5110287;28;20585;-61
2022/04/17 02:08:37;;;;;;;11.93;8.63;;;;;;;17.46;51.56;99081.88;5109940;28;20661;-61
2022/04/17 02:11:05;;;;;;;10.20;8.53;;;;;;;17.39;51.70;99069.00;5110113;28;20328;-61
2022/04/17 02:13:34;;;;;;;11.27;8.57;;;;;;;17.40;52.03;99071.59;5109913;28;20237;-60
2022/04/17 02:16:01;;;;;;;10.70;8.33;;;;;;;17.39;51.83;99080.25;5110014;28;20190;-61
2022/04/17 02:18:28;;;;;;;9.60;8.47;;;;;;;17.39;52.05;99082.84;5110431;28;20193;-61
2022/04/17 02:20:55;;;;;;;12.73;8.40;;;;;;;17.40;51.81;99079.38;5113452;28;20198;-61
2022/04/17 02:23:22;;;;;;;9.57;8.13;;;;;;;17.45;51.42;99076.69;5105183;28;20434;-58
2022/04/17 02:25:49;;;;;;;8.70;7.07;;;;;;;17.38;51.25;99069.91;5093355;28;20201;-58
2022/04/17 02:28:17;;;;;;;10.20;7.17;;;;;;;17.36;51.41;99082.06;5093359;28;20210;-58
2022/04/17 02:30:44;;;;;;;9.47;7.07;;;;;;;17.44;50.00;99080.19;5093075;28;20202;-59
2022/04/17 02:33:11;;;;;;;7.67;6.80;;;;;;;17.47;51.26;99082.72;5092929;28;20265;-58
2022/04/17 02:35:38;;;;;;;8.20;7.13;;;;;;;17.44;52.22;99086.22;5093073;28;20563;-58
2022/04/17 02:38:05;;;;;;;11.83;8.10;;;;;;;17.45;52.46;99094.88;5092978;28;20201;-58
2022/04/17 02:40:32;;;;;;;8.97;7.00;;;;;;;17.42;51.79;99097.50;5092851;28;20194;-58
2022/04/17 02:42:59;;;;;;;7.10;6.40;;;;;;;17.42;51.97;99095.78;5093044;28;20198;-58
2022/04/17 02:45:28;;;;;;;8.00;6.37;;;;;;;17.38;52.62;99094.13;5092957;28;20198;-58
2022/04/17 02:47:55;;;;;;;6.93;5.90;;;;;;;17.27;51.59;99084.81;5097119;28;20201;-58
2022/04/17 02:50:23;;;;;;;7.07;6.20;;;;;;;17.28;51.83;99079.56;5096537;27;20267;-58
2022/04/17 02:52:54;;;;;;;7.67;5.73;;;;;;;17.26;50.89;99077.88;5092983;28;20624;-58
2022/04/17 02:55:21;;;;;;;7.07;6.00;;;;;;;17.32;50.77;99077.78;5092805;28;20226;-59
2022/04/17 02:57:48;;;;;;;9.03;7.07;;;;;;;17.35;51.71;99081.19;5092509;28;20200;-58
2022/04/17 03:00:16;;;;;;;13.23;9.37;;;;;;;17.24;52.74;99070.16;5092440;28;20661;-59
2022/04/17 03:05:37;;;;;;;10.73;8.83;;;;;;;17.02;53.17;99072.25;5092586;28;20260;-58
2022/04/17 03:08:07;;;;;;;12.80;8.60;;;;;;;16.98;52.84;99077.50;5092472;28;20191;-58
2022/04/17 03:10:34;;;;;;;9.03;8.03;;;;;;;16.94;52.60;99060.28;5092658;28;20280;-58
2022/04/17 03:13:01;;;;;;;8.83;7.93;;;;;;;17.10;52.60;99088.56;5092050;28;20661;-58
2022/04/17 03:15:28;;;;;;;8.70;6.83;;;;;;;17.15;51.78;99085.00;5092360;28;20214;-58
2022/04/17 03:17:57;;;;;;;10.37;6.53;;;;;;;17.17;51.32;99088.47;5092339;28;20278;-58
2022/04/17 03:20:23;;;;;;;8.13;6.30;;;;;;;17.02;50.85;99087.81;5092181;28;20186;-58
2022/04/17 03:22:50;;;;;;;6.57;5.70;;;;;;;17.00;50.58;99083.53;5092190;28;20251;-58
2022/04/17 03:25:17;;;;;;;7.33;5.77;;;;;;;17.06;49.91;99081.69;5091545;28;20438;-58
2022/04/17 03:27:46;;;;;;;6.97;6.37;;;;;;;17.09;49.87;99086.81;5092185;28;20202;-58
2022/04/17 03:30:16;;;;;;;6.40;5.80;;;;;;;16.99;49.75;99071.44;5091751;28;20255;-58
2022/04/17 03:32:43;;;;;;;13.97;5.63;;;;;;;17.02;50.23;99098.19;5091919;28;20190;-58
2022/04/17 03:35:13;;;;;;;5.50;5.00;;;;;;;16.91;50.20;99094.06;5091934;28;20230;-58
2022/04/17 03:37:42;;;;;;;8.40;6.20;;;;;;;16.81;51.78;99106.28;5091755;28;20202;-58
2022/04/17 03:40:10;;;;;;;10.43;6.23;;;;;;;16.68;52.69;99101.31;5092065;28;20191;-58
2022/04/17 03:42:38;;;;;;;8.80;5.97;;;;;;;16.55;54.19;99107.56;5091536;28;20237;-58
2022/04/17 03:45:06;;;;;;;7.50;6.70;;;;;;;16.35;55.79;99115.56;5091079;28;20191;-58
2022/04/17 03:47:33;;;;;;;6.87;6.17;;;;;;;16.27;56.54;99120.00;5091711;28;20669;-58
2022/04/17 03:50:01;;;;;;;7.90;6.40;;;;;;;16.07;58.29;99122.00;5090309;28;20199;-58
2022/04/17 03:52:39;;;;;;;11.83;6.67;;;;;;;15.83;59.59;99082.53;5090989;28;20260;-58
2022/04/17 03:55:07;;;;;;;8.17;7.20;;;;;;;15.97;60.87;99120.38;5091043;28;20219;-58
2022/04/17 03:57:34;;;;;;;8.80;8.00;;;;;;;15.91;61.94;99116.97;5091416;28;20310;-58
2022/04/17 04:00:01;;;;;;;10.77;7.90;;;;;;;15.71;63.62;99125.84;5091386;28;20209;-58
2022/04/17 04:02:29;;;;;;;10.17;7.03;;;;;;;15.74;65.19;99128.41;5091238;28;20194;-58
2022/04/17 04:04:56;;;;;;;7.93;7.23;;;;;;;15.59;66.05;99132.00;5091379;28;20189;-58
2022/04/17 04:07:23;;;;;;;9.00;8.20;;;;;;;15.58;67.13;99132.88;5091400;28;20190;-58
2022/04/17 04:09:51;;;;;;;9.50;8.53;;;;;;;15.49;69.33;99132.97;5091388;28;20189;-60
2022/04/17 04:12:18;;;;;;;9.57;8.57;;;;;;;15.45;69.65;99131.25;5090389;28;20577;-58
2022/04/17 04:14:45;;;;;;;9.00;8.20;;;;;;;15.38;70.82;99131.31;5090856;28;20274;-58
2022/04/17 04:17:12;;;;;;;14.10;9.57;;;;;;;15.30;71.81;99136.53;5091107;28;20298;-58
2022/04/17 04:19:39;;;;;;;10.30;9.27;;;;;;;15.13;72.96;99136.69;5090915;28;20202;-58
2022/04/17 04:22:06;;;;;;;12.73;10.47;;;;;;;15.04;74.38;99134.19;5090995;28;20198;-58
2022/04/17 04:24:33;;;;;;;11.80;10.60;;;;;;;14.89;75.12;99133.44;5090934;28;20203;-58
2022/04/17 04:29:46;;;;;;;12.83;11.53;;;;;;;14.97;77.00;99149.75;5091000;28;20328;-58
2022/04/17 04:32:13;;;;;;;11.77;10.57;;;;;;;14.97;77.12;99149.75;5090769;28;20205;-57
2022/04/17 04:34:40;;;;;;;12.57;10.77;;;;;;;14.92;77.57;99154.94;5089446;28;20214;-61
2022/04/17 04:37:06;;;;;;;11.77;10.27;;;;;;;14.75;78.02;99157.63;5089813;28;20285;-61
2022/04/17 04:39:33;;;;;;;13.07;11.83;;;;;;;14.71;79.53;99155.94;5090588;28;20241;-61
2022/04/17 04:42:02;;;;;;;16.05;12.88;;;;;;;14.70;80.24;99159.41;5089329;28;20448;-60
2022/04/17 04:44:29;;;;;;;12.77;11.40;;;;;;;14.70;80.85;99156.81;5090931;28;20187;-61
2022/04/17 04:46:56;;;;;;;12.27;11.17;;;;;;;14.76;81.08;99164.53;5090710;28;20288;-61
2022/04/17 04:49:31;;;;;;;13.17;11.87;;;;;;;14.56;81.85;99166.38;5090431;28;20192;-61
2022/04/17 04:51:58;;;;;;;15.37;11.70;;;;;;;14.42;81.57;99172.50;5090724;28;20196;-62
2022/04/17 04:54:26;;;;;;;14.20;11.90;;;;;;;14.34;82.37;99169.91;5090202;28;20223;-60
2022/04/17 04:56:53;;;;;;;14.40;12.30;;;;;;;14.28;83.67;99174.22;5090314;28;20198;-61
2022/04/17 04:59:22;;;;;;;13.77;12.33;;;;;;;14.14;83.30;99164.81;5090401;28;20283;-60
2022/04/17 05:01:49;;;;;;;14.20;12.73;;;;;;;14.22;84.38;99169.94;5090544;28;20197;-60
2022/04/17 05:04:16;;;;;;;13.43;12.23;;;;;;;14.21;85.77;99173.38;5090563;28;20593;-60
2022/04/17 05:06:43;;;;;;;14.47;12.97;;;;;;;14.11;85.24;99176.88;5090099;28;20243;-60
2022/04/17 05:09:10;;;;;;;15.43;14.02;;;;;;;14.11;86.15;99176.88;5089516;28;20571;-61
2022/04/17 05:11:38;;;;;;;14.07;12.63;;;;;;;14.23;86.12;99181.97;5088225;28;20561;-60
2022/04/17 05:14:06;;;;;;;14.10;12.67;;;;;;;14.24;85.44;99188.88;5089655;28;20234;-60
2022/04/17 05:16:35;;;;;;;13.23;11.93;;;;;;;14.21;85.39;99183.72;5087231;28;20187;-60
2022/04/17 05:19:21;;;;;;;14.80;12.87;;;;;;;14.14;86.19;99194.94;5090104;28;20233;-61
2022/04/17 05:21:50;;;;;;;13.43;12.10;;;;;;;14.10;86.34;99188.91;5089353;28;20200;-62
2022/04/17 05:24:18;;;;;;;13.77;12.27;;;;;;;13.75;86.11;99158.88;5089130;28;20441;-60
2022/04/17 05:26:45;;;;;;;14.97;12.47;;;;;;;13.78;87.25;99152.00;5089237;28;20271;-60
2022/04/17 05:29:12;;;;;;;13.77;12.47;;;;;;;13.96;87.13;99193.25;5087321;28;20179;-60
2022/04/17 05:31:40;;;;;;;14.13;12.63;;;;;;;13.92;87.58;99196.72;5090122;28;20211;-60
2022/04/17 05:34:07;;;;;;;15.67;13.40;;;;;;;13.85;88.56;99191.56;5089706;28;20199;-59
2022/04/17 05:36:34;;;;;;;15.37;12.60;;;;;;;13.90;89.07;99188.09;5089301;28;20681;-59
2022/04/17 05:39:01;;;;;;;14.93;12.83;;;;;;;13.84;89.40;99201.06;5089543;28;20193;-60
2022/04/17 05:41:29;;;;;;;13.87;12.57;;;;;;;13.77;89.31;99201.03;5089119;28;20578;-60
2022/04/17 05:43:57;;;;;;;15.23;13.73;;;;;;;13.75;89.77;99197.59;5089409;28;20260;-60
2022/04/17 05:46:25;;;;;;;18.43;16.53;;;;;;;13.79;90.26;99200.16;5087093;28;20186;-60
2022/04/17 05:48:54;;;;;;;17.33;14.63;;;;;;;13.77;89.89;99201.03;5087144;28;20630;-61
2022/04/17 05:51:21;;;;;;;16.40;14.67;;;;;;;13.78;89.84;99200.19;5089637;28;20191;-60
2022/04/17 05:53:48;;;;;;;16.93;15.10;;;;;;;13.50;90.16;99205.38;5090014;28;20180;-60
2022/04/17 05:56:15;;;;;;;19.77;17.27;;;;;;;13.50;91.15;99205.38;5092247;28;20279;-62
2022/04/17 05:58:42;;;;;;;21.50;18.27;;;;;;;13.61;91.49;99200.19;5090828;28;20192;-61
2022/04/17 06:01:09;;;;;;;19.27;17.37;;;;;;;13.68;91.40;99203.66;5093071;28;20190;-61
2022/04/17 06:03:36;;;;;;;20.00;17.10;;;;;;;13.67;91.49;99199.34;5091888;28;20273;-61
2022/04/17 06:06:05;;;;;;;18.00;15.70;;;;;;;13.68;90.98;99195.91;5090876;28;20615;-62
2022/04/17 06:08:32;;;;;;;17.03;15.23;;;;;;;13.53;90.83;99187.31;5091999;28;20192;-61
2022/04/17 06:10:59;;;;;;;17.77;15.37;;;;;;;13.59;91.35;99191.59;5092319;28;20740;-61
2022/04/17 06:13:26;;;;;;;16.93;15.20;;;;;;;13.52;92.03;99195.03;5091426;28;20223;-61
2022/04/17 06:15:53;;;;;;;16.67;14.97;;;;;;;13.60;91.77;99203.63;5092160;28;20214;-61
2022/04/17 06:18:19;;;;;;;15.00;13.60;;;;;;;13.43;91.17;99190.72;5092478;28;20285;-61
2022/04/17 06:20:46;;;;;;;15.47;13.97;;;;;;;13.42;91.75;99190.75;5092241;28;20634;-61
2022/04/17 06:23:15;;;;;;;16.47;14.87;;;;;;;13.55;92.66;99195.91;5091634;28;20201;-61
2022/04/17 06:25:42;;;;;;;16.27;14.77;;;;;;;13.55;91.88;99195.91;5091846;28;20420;-61
2022/04/17 06:28:08;;;;;;;14.80;13.30;;;;;;;13.52;91.79;99198.47;5091707;28;20687;-61
2022/04/17 06:30:35;;;;;;;14.67;13.17;;;;;;;13.42;91.12;99193.31;5092246;28;20195;-61
2022/04/17 06:33:02;;;;;;;15.27;13.67;;;;;;;13.44;91.58;99186.44;5089518;28;20198;-62
2022/04/17 06:35:29;;;;;;;15.20;13.70;;;;;;;13.45;91.50;99180.44;5092644;28;20597;-61
2022/04/17 06:37:58;;;;;;;15.20;13.80;;;;;;;13.41;91.12;99187.28;5091194;28;20249;-61
2022/04/17 06:40:29;;;;;;;15.77;14.10;;;;;;;13.49;91.34;99185.56;5091237;28;20191;-61
2022/04/17 06:42:58;;;;;;;16.00;14.33;;;;;;;13.56;92.13;99184.72;5091613;28;20185;-61
2022/04/17 06:45:25;;;;;;;16.57;14.87;;;;;;;13.53;91.90;99176.13;5092203;28;20184;-61
2022/04/17 06:47:53;;;;;;;17.07;15.27;;;;;;;13.49;91.85;99187.28;5092243;28;20181;-60
2022/04/17 06:50:22;;;;;;;16.63;14.90;;;;;;;13.17;91.73;99135.69;5087383;28;20222;-60
2022/04/17 06:52:49;;;;;;;16.97;15.23;;;;;;;13.30;92.09;99188.16;5091050;28;20673;-61
2022/04/17 06:55:16;;;;;;;18.17;16.30;;;;;;;13.47;92.48;99196.75;5089938;28;20207;-60
2022/04/17 06:57:49;;;;;;;16.60;14.93;;;;;;;13.44;92.42;99192.47;5091489;28;20561;-61
2022/04/17 07:00:18;;;;;;;18.03;16.07;;;;;;;13.20;92.47;99191.59;5092248;28;20281;-61
2022/04/17 07:02:45;;;;;;;17.97;16.07;;;;;;;13.24;93.09;99195.91;5106501;28;20202;-57
2022/04/17 07:05:13;;;;;;;17.97;16.13;;;;;;;13.22;93.07;99198.47;5097740;28;20646;-58
2022/04/17 07:07:40;;;;;;;18.07;16.17;;;;;;;13.35;93.04;99201.94;5090711;28;20213;-58
2022/04/17 07:10:09;;;;;;;24.40;21.90;;;;;;;13.37;93.34;99198.50;5089042;28;20447;-58
2022/04/17 07:12:36;;;;;;;18.97;17.07;;;;;;;13.41;93.08;99192.47;5089570;28;20222;-58
2022/04/17 07:15:06;;;;;;;19.77;17.67;;;;;;;13.47;93.07;99200.22;5090898;28;20254;-58
2022/04/17 07:17:35;;;;;;;19.20;17.33;;;;;;;13.51;92.71;99204.50;5094085;28;20198;-60
2022/04/17 07:20:02;;;;;;;19.47;17.27;;;;;;;13.43;92.67;99206.22;5092550;28;20189;-60
2022/04/17 07:22:29;;;;;;;19.60;17.20;;;;;;;13.41;92.96;99197.63;5091605;28;20232;-60
2022/04/17 07:24:57;;;;;;;19.57;17.47;;;;;;;13.52;93.60;99201.06;5090017;28;20183;-61
2022/04/17 07:27:25;;;;;;;22.25;20.05;;;;;;;13.45;93.57;99213.97;5090809;28;20432;-61
2022/04/17 07:29:53;;;;;;;20.67;17.93;;;;;;;13.54;93.41;99212.25;5091668;28;20193;-62
2022/04/17 07:32:21;;;;;;;20.80;17.87;;;;;;;13.48;93.24;99220.00;5092023;28;20191;-63
2022/04/17 07:34:50;;;;;;;22.27;18.73;;;;;;;13.53;93.81;99220.84;5088468;28;20212;-63
2022/04/17 07:37:25;;;;;;;20.73;18.63;;;;;;;13.54;93.68;99213.97;5088930;28;20191;-58
2022/04/17 07:39:52;;;;;;;23.47;18.80;;;;;;;13.49;93.73;99213.97;5091106;28;20284;-58
2022/04/17 07:42:20;;;;;;;20.03;18.03;;;;;;;13.44;93.75;99214.81;5091244;28;20197;-58
2022/04/17 07:44:48;;;;;;;19.23;17.40;;;;;;;13.29;94.08;99207.97;5089654;28;20213;-57
2022/04/17 07:47:16;;;;;;;21.80;19.43;;;;;;;13.27;94.24;99206.19;5090874;28;20187;-57
2022/04/17 07:49:44;;;;;;;22.47;20.07;;;;;;;13.37;94.29;99206.25;5089080;28;20205;-57
2022/04/17 07:52:11;;;;;;;22.37;20.07;;;;;;;13.45;94.20;99207.09;5091475;28;20198;-57
2022/04/17 07:54:39;;;;;;;24.53;20.70;;;;;;;13.44;94.18;99196.75;5085872;28;20206;-58
2022/04/17 07:57:06;;;;;;;20.73;18.53;;;;;;;13.49;94.35;99205.34;5091220;28;20195;-57
2022/04/17 07:59:33;;;;;;;22.40;20.07;;;;;;;13.46;93.73;99213.97;5091554;28;20244;-57
2022/04/17 08:02:11;;;;;;;20.87;18.67;;;;;;;13.47;94.01;99207.09;5099625;28;20233;-58
2022/04/17 08:04:40;;;;;;;21.77;19.57;;;;;;;13.15;94.37;99198.47;5111735;28;20656;-58
2022/04/17 08:07:09;;;;;;;25.55;23.10;;;;;;;13.24;94.85;99196.75;5111340;28;20461;-58
2022/04/17 08:09:35;;;;;;;24.73;22.20;;;;;;;13.24;95.34;99193.34;5111522;28;20200;-58
2022/04/17 08:12:02;;;;;;;25.30;22.57;;;;;;;13.30;96.00;99180.41;5106610;28;20289;-57
2022/04/17 08:14:29;;;;;;;25.33;22.63;;;;;;;13.38;95.30;99176.97;5090416;28;20268;-57
2022/04/17 08:16:56;;;;;;;26.43;23.73;;;;;;;13.45;94.56;99170.97;5090148;28;20228;-58
2022/04/17 08:19:24;;;;;;;26.57;23.70;;;;;;;13.46;94.83;99182.13;5090903;28;20278;-58
2022/04/17 08:21:52;;;;;;;24.13;21.60;;;;;;;13.60;94.62;99177.81;5090630;28;20279;-58
2022/04/17 08:24:20;;;;;;;25.87;22.97;;;;;;;13.55;94.26;99175.25;5096524;28;20196;-58
2022/04/17 08:26:47;;;;;;;26.63;23.47;;;;;;;13.57;93.85;99178.69;5090461;28;20279;-57
2022/04/17 08:29:14;;;;;;;26.20;23.37;;;;;;;13.58;93.58;99179.53;5090427;28;20195;-57
2022/04/17 08:31:41;;;;;;;26.10;23.50;;;;;;;13.39;93.37;99183.88;5089990;28;20249;-58
2022/04/17 08:34:08;;;;;;;39.77;35.47;;;;;;;13.46;94.91;99189.88;5089221;28;20206;-57
2022/04/17 08:36:35;;;;;;;28.93;23.20;;;;;;;13.51;94.96;99193.34;5090215;28;20226;-58
2022/04/17 08:39:02;;;;;;;34.03;29.50;;;;;;;13.54;95.07;99191.59;5090744;28;20219;-58
2022/04/17 08:41:33;;;;;;;24.37;21.77;;;;;;;13.50;95.34;99179.56;5090398;28;20216;-58
2022/04/17 08:44:00;;;;;;;33.37;27.93;;;;;;;13.57;95.82;99178.69;5090581;28;20277;-58
2022/04/17 08:46:27;;;;;;;30.07;25.70;;;;;;;13.68;96.34;99176.09;5090275;28;20272;-58
2022/04/17 08:48:55;;;;;;;25.83;23.40;;;;;;;13.78;95.65;99171.78;5090122;28;20762;-58
2022/04/17 08:51:24;;;;;;;24.70;22.30;;;;;;;13.89;94.18;99175.19;5090215;28;20203;-58
2022/04/17 08:53:54;;;;;;;21.67;19.50;;;;;;;13.95;94.29;99168.28;5090215;28;20190;-57
2022/04/17 08:56:21;;;;;;;25.73;20.27;;;;;;;13.92;93.35;99170.03;5090070;28;20317;-56
2022/04/17 08:58:49;;;;;;;20.40;18.20;;;;;;;13.89;93.39;99157.13;5090098;28;20191;-57
2022/04/17 09:01:19;;;;;;;22.73;19.30;;;;;;;13.93;93.46;99159.69;5089919;28;20281;-59
2022/04/17 09:03:47;;;;;;;19.70;17.70;;;;;;;14.06;93.14;99153.59;5089868;28;20201;-58
2022/04/17 09:06:15;;;;;;;22.00;19.60;;;;;;;13.88;92.91;99156.25;5089868;28;20573;-58
2022/04/17 09:08:57;;;;;;;21.67;19.47;;;;;;;13.85;93.04;99152.81;5085703;28;20205;-58
2022/04/17 09:11:26;;;;;;;23.53;21.03;;;;;;;13.96;93.47;99154.50;5088424;28;20625;-58
2022/04/17 09:13:56;;;;;;;22.87;20.40;;;;;;;13.84;93.70;99153.69;5089978;28;20227;-57
2022/04/17 09:16:28;;;;;;;23.60;21.20;;;;;;;13.94;94.26;99158.84;5089765;28;20272;-57
2022/04/17 09:18:56;;;;;;;20.70;18.60;;;;;;;14.07;93.78;99152.75;5088894;28;20195;-63
2022/04/17 09:21:32;;;;;;;24.97;22.30;;;;;;;14.07;93.55;99160.50;5089393;28;20204;-63
2022/04/17 09:24:16;;;;;;;21.30;19.03;;;;;;;13.97;92.42;99151.06;5090039;28;20194;-63
2022/04/17 09:26:51;;;;;;;20.00;17.48;;;;;;;13.99;92.86;99148.47;5089698;28;20395;-63
2022/04/17 09:29:21;;;;;;;19.17;17.10;;;;;;;13.99;92.99;99145.91;5092803;28;20284;-63
2022/04/17 09:31:49;;;;;;;17.63;15.23;;;;;;;13.91;92.93;99156.25;5093675;28;20191;-63
2022/04/17 09:34:16;;;;;;;17.07;15.47;;;;;;;13.77;92.76;99158.00;5093864;28;20226;-64
2022/04/17 09:36:43;;;;;;;19.83;17.70;;;;;;;13.59;93.13;99132.22;5093701;28;20699;-63
2022/04/17 09:39:15;;;;;;;17.80;15.90;;;;;;;13.74;93.40;99146.81;5093480;28;20191;-63
2022/04/17 09:42:03;;;;;;;17.70;15.80;;;;;;;13.78;94.16;99141.66;5092830;28;20198;-64
2022/04/17 09:44:39;;;;;;;17.53;15.67;;;;;;;13.67;93.69;99139.97;5088184;28;20193;-64
2022/04/17 09:47:09;;;;;;;21.13;18.93;;;;;;;13.60;94.30;99134.81;5090973;28;21054;-63
2022/04/17 09:49:53;;;;;;;19.87;16.83;;;;;;;13.70;94.97;99135.66;5091683;28;20200;-64
2022/04/17 09:52:20;;;;;;;21.63;18.57;;;;;;;13.69;94.89;99130.47;5092311;28;20203;-64
2022/04/17 09:54:49;;;;;;;24.93;20.10;;;;;;;13.74;94.72;99118.41;5092716;28;20198;-64
2022/04/17 09:57:20;;;;;;;19.17;16.47;;;;;;;13.67;95.16;99119.31;5092736;28;20219;-63
2022/04/17 09:59:50;;;;;;;19.37;16.10;;;;;;;13.71;94.76;99110.66;5093598;28;20269;-63
2022/04/17 10:02:17;;;;;;;14.83;13.37;;;;;;;13.47;94.47;99109.00;5093401;28;20203;-63
2022/04/17 10:04:46;;;;;;;15.93;14.13;;;;;;;13.56;94.75;99107.28;5093307;28;20211;-63
2022/04/17 10:07:14;;;;;;;13.93;12.43;;;;;;;13.68;95.55;99097.81;5093094;28;20282;-63
2022/04/17 10:09:42;;;;;;;12.77;11.47;;;;;;;13.70;94.56;99096.94;5093320;28;20194;-62
2022/04/17 10:12:14;;;;;;;15.73;14.03;;;;;;;13.75;94.29;99096.91;5092589;28;20565;-62
2022/04/17 10:14:42;;;;;;;12.93;11.47;;;;;;;13.49;93.12;99105.56;5108409;28;20233;-62
2022/04/17 10:17:11;;;;;;;11.03;9.87;;;;;;;13.28;93.61;99092.69;5112800;28;20271;-61
2022/04/17 10:19:42;;;;;;;12.90;11.10;;;;;;;13.26;94.21;99086.69;5112278;28;20308;-61
2022/04/17 10:22:10;;;;;;;9.60;8.70;;;;;;;13.25;94.04;99090.13;5092966;28;20217;-63
2022/04/17 10:24:39;;;;;;;10.20;9.13;;;;;;;13.09;93.56;99093.56;5100559;28;20193;-62
2022/04/17 10:27:08;;;;;;;10.70;9.60;;;;;;;13.07;94.57;99078.94;5091104;28;20194;-62
2022/04/17 10:29:41;;;;;;;11.30;8.37;;;;;;;13.07;93.90;99089.25;5076617;28;20663;-63
2022/04/17 10:32:27;;;;;;;10.07;8.53;;;;;;;13.09;94.35;99088.41;5088227;28;20210;-63
2022/04/17 10:35:20;;;;;;;8.77;7.97;;;;;;;13.04;93.90;99105.59;5086286;28;20205;-63
2022/04/17 10:38:19;;;;;;;8.20;6.83;;;;;;;12.91;93.63;99109.03;5089156;28;20237;-62
2022/04/17 10:40:52;;;;;;;9.03;8.13;;;;;;;12.96;94.35;99113.28;5090870;28;20199;-62
2022/04/17 10:43:20;;;;;;;8.57;7.67;;;;;;;12.83;93.59;99118.44;5091919;28;20198;-63
2022/04/17 10:46:09;;;;;;;9.80;8.60;;;;;;;12.73;94.42;99121.88;5092327;28;20194;-63
2022/04/17 10:48:45;;;;;;;9.80;8.90;;;;;;;12.67;94.86;99120.16;5092590;28;20199;-63
2022/04/17 10:51:14;;;;;;;10.50;8.77;;;;;;;12.73;94.77;99119.31;5092462;28;20673;-61
2022/04/17 10:53:53;;;;;;;11.00;9.87;;;;;;;12.72;94.43;99120.13;5092562;28;20191;-62
2022/04/17 10:56:21;;;;;;;10.07;8.47;;;;;;;12.58;94.45;99119.28;5092065;28;20218;-62
2022/04/17 10:58:52;;;;;;;9.03;8.13;;;;;;;12.55;94.67;99117.56;5092294;28;20195;-62
2022/04/17 11:01:51;;;;;;;8.37;7.57;;;;;;;12.47;93.19;99121.81;5091897;28;20191;-63
2022/04/17 11:04:21;;;;;;;9.13;8.13;;;;;;;12.23;93.08;99132.91;5078687;28;20666;-61
2022/04/17 11:07:10;;;;;;;9.50;8.03;;;;;;;12.16;93.94;99140.63;5092155;28;20188;-61
2022/04/17 11:09:40;;;;;;;6.47;5.90;;;;;;;12.01;93.72;99143.09;5087183;28;20388;-61
2022/04/17 11:12:08;;;;;;;7.33;6.63;;;;;;;11.99;93.90;99137.97;5092068;28;20653;-62
2022/04/17 11:14:35;;;;;;;6.87;6.27;;;;;;;11.87;94.10;99137.88;5091821;28;20235;-62
2022/04/17 11:17:07;;;;;;;8.13;7.33;;;;;;;11.23;95.07;99083.44;5092015;28;20222;-62
2022/04/17 11:19:40;;;;;;;8.90;8.00;;;;;;;11.54;96.04;99127.34;5092111;28;20203;-61
2022/04/17 11:22:09;;;;;;;10.37;9.37;;;;;;;11.45;96.32;99123.03;5091598;28;20202;-61
2022/04/17 11:25:05;;;;;;;9.03;8.13;;;;;;;11.41;96.99;99131.56;5092083;28;20191;-61
2022/04/17 11:27:38;;;;;;;9.63;8.67;;;;;;;11.59;97.58;99133.41;5092073;28;20198;-62
2022/04/17 11:30:07;;;;;;;8.57;7.77;;;;;;;11.61;97.05;99135.16;5091293;28;20191;-62
2022/04/17 11:32:53;;;;;;;9.60;8.70;;;;;;;11.73;96.54;99132.66;5091425;28;20203;-62
2022/04/17 11:35:23;;;;;;;8.07;7.27;;;;;;;11.63;95.78;99106.84;5091615;28;20194;-61
2022/04/17 11:37:52;;;;;;;9.23;8.17;;;;;;;11.78;95.44;99125.81;5091029;28;20223;-62
2022/04/17 11:40:21;;;;;;;8.03;7.33;;;;;;;11.77;94.89;99125.84;5091257;28;20704;-62
2022/04/17 11:42:50;;;;;;;9.03;8.13;;;;;;;11.59;93.87;99123.13;5091341;28;20194;-62